createdAt,value
2022-11-29T00:01:32.864Z,8.20
2022-11-29T00:03:59.914Z,7.80
2022-11-29T00:06:30.165Z,7.30
2022-11-29T00:08:58.678Z,9.03
2022-11-29T00:11:27.445Z,7.83
2022-11-29T00:13:53.982Z,8.33
2022-11-29T00:16:20.611Z,7.10
2022-11-29T00:18:49.085Z,7.20
2022-11-29T00:21:15.612Z,6.87
2022-11-29T00:23:43.546Z,7.30
2022-11-29T00:26:10.063Z,7.33
2022-11-29T00:28:37.205Z,7.37
2022-11-29T00:31:14.052Z,8.17
2022-11-29T00:33:40.613Z,7.10
2022-11-29T00:36:07.858Z,7.73
2022-11-29T00:38:34.402Z,6.07
2022-11-29T00:41:02.337Z,7.07
2022-11-29T00:43:28.967Z,7.63
2022-11-29T00:45:55.535Z,8.00
2022-11-29T00:48:22.224Z,8.17
2022-11-29T00:50:48.778Z,9.67
2022-11-29T00:53:15.304Z,8.10
2022-11-29T00:55:43.687Z,7.27
2022-11-29T00:58:11.592Z,6.43
2022-11-29T01:00:38.138Z,6.70
2022-11-29T01:03:04.668Z,8.33
2022-11-29T01:05:31.702Z,7.20
2022-11-29T01:07:58.322Z,6.97
2022-11-29T01:10:25.659Z,8.17
2022-11-29T01:12:52.215Z,6.80
2022-11-29T01:15:20.163Z,6.60
2022-11-29T01:17:46.708Z,5.90
2022-11-29T01:20:13.621Z,5.97
2022-11-29T01:22:40.252Z,6.30
2022-11-29T01:25:07.964Z,5.77
2022-11-29T01:27:35.057Z,6.17
2022-11-29T01:30:01.621Z,5.50
2022-11-29T01:32:29.733Z,6.30
2022-11-29T01:34:56.294Z,7.23
2022-11-29T01:37:22.918Z,6.20
2022-11-29T01:39:49.487Z,5.43
2022-11-29T01:42:16.145Z,5.97
2022-11-29T01:45:22.660Z,5.47
2022-11-29T01:47:55.019Z,5.43
2022-11-29T01:50:21.781Z,6.63
2022-11-29T01:52:48.880Z,5.57
2022-11-29T01:55:15.805Z,7.13
2022-11-29T01:57:43.598Z,6.97
2022-11-29T02:00:12.700Z,6.40
2022-11-29T02:02:44.061Z,5.83
2022-11-29T02:05:13.496Z,6.87
2022-11-29T02:07:41.512Z,5.13
2022-11-29T02:10:08.923Z,4.90
2022-11-29T02:12:44.266Z,5.00
2022-11-29T02:15:38.399Z,5.73
2022-11-29T02:18:09.603Z,5.37
2022-11-29T02:21:10.575Z,5.83
2022-11-29T02:24:10.189Z,4.87
2022-11-29T02:26:59.306Z,5.50
2022-11-29T02:29:45.611Z,5.57
2022-11-29T02:32:46.457Z,5.30
2022-11-29T02:35:24.360Z,4.77
2022-11-29T02:38:08.500Z,4.70
2022-11-29T02:40:51.384Z,4.77
2022-11-29T02:43:39.811Z,5.23
2022-11-29T02:46:40.775Z,4.43
2022-11-29T02:49:21.311Z,3.80
2022-11-29T02:51:53.946Z,5.40
2022-11-29T02:54:26.273Z,4.60
2022-11-29T02:56:56.679Z,4.30
2022-11-29T02:59:37.237Z,5.33
2022-11-29T03:02:12.599Z,4.30
2022-11-29T03:04:46.861Z,3.97
2022-11-29T03:07:21.716Z,3.90
2022-11-29T03:09:55.755Z,5.03
2022-11-29T03:12:30.178Z,4.20
2022-11-29T03:15:05.792Z,4.27
2022-11-29T03:17:40.943Z,4.10
2022-11-29T03:20:21.961Z,4.20
2022-11-29T03:23:03.568Z,3.70
2022-11-29T03:25:36.672Z,3.63
2022-11-29T03:28:10.878Z,3.50
2022-11-29T03:30:39.931Z,3.83
2022-11-29T03:33:12.936Z,3.60
2022-11-29T03:35:47.588Z,4.03
2022-11-29T03:38:20.852Z,3.60
2022-11-29T03:40:54.536Z,3.70
2022-11-29T03:43:26.489Z,4.07
2022-11-29T03:45:58.518Z,3.77
2022-11-29T03:48:31.152Z,3.30
2022-11-29T03:51:03.549Z,3.33
2022-11-29T03:53:36.808Z,3.53
2022-11-29T03:56:22.118Z,3.50
2022-11-29T03:58:55.430Z,3.63
2022-11-29T04:02:01.957Z,3.23
2022-11-29T04:05:07.959Z,3.43
2022-11-29T04:07:46.093Z,3.20
2022-11-29T04:10:25.350Z,3.73
2022-11-29T04:13:22.753Z,3.87
2022-11-29T04:16:20.865Z,3.33
2022-11-29T04:19:15.018Z,4.00
2022-11-29T04:21:59.908Z,3.30
2022-11-29T04:24:55.729Z,3.70
2022-11-29T04:27:40.025Z,3.90
2022-11-29T04:30:19.034Z,3.67
2022-11-29T04:33:19.353Z,4.30
2022-11-29T04:35:55.718Z,3.73
2022-11-29T04:38:40.849Z,3.53
2022-11-29T04:41:44.032Z,3.40
2022-11-29T04:44:40.309Z,3.03
2022-11-29T04:47:34.608Z,3.43
2022-11-29T04:50:17.186Z,4.03
2022-11-29T04:52:59.639Z,3.47
2022-11-29T04:55:39.699Z,3.87
2022-11-29T04:58:18.149Z,3.90
2022-11-29T05:00:51.822Z,3.63
2022-11-29T05:03:29.881Z,3.50
2022-11-29T05:06:04.585Z,3.67
2022-11-29T05:08:45.227Z,4.17
2022-11-29T05:11:23.425Z,3.50
2022-11-29T05:14:01.806Z,3.37
2022-11-29T05:16:45.555Z,3.80
2022-11-29T05:19:28.627Z,3.93
2022-11-29T05:22:06.866Z,3.60
2022-11-29T05:24:51.328Z,3.70
2022-11-29T05:27:27.009Z,3.87
2022-11-29T05:30:02.365Z,3.50
2022-11-29T05:32:35.524Z,3.90
2022-11-29T05:35:29.225Z,4.30
2022-11-29T05:38:01.300Z,4.37
2022-11-29T05:40:44.109Z,4.23
2022-11-29T05:43:37.183Z,4.60
2022-11-29T05:46:11.961Z,4.10
2022-11-29T05:48:47.313Z,4.70
2022-11-29T05:51:21.536Z,5.33
2022-11-29T05:53:58.919Z,5.67
2022-11-29T05:56:34.232Z,5.23
2022-11-29T05:59:05.081Z,5.00
2022-11-29T06:01:40.651Z,4.70
2022-11-29T06:04:15.195Z,4.97
2022-11-29T06:06:46.819Z,4.97
2022-11-29T06:09:18.183Z,4.43
2022-11-29T06:11:47.386Z,4.93
2022-11-29T06:14:31.495Z,4.97
2022-11-29T06:17:16.830Z,4.33
2022-11-29T06:20:00.930Z,4.43
2022-11-29T06:22:47.297Z,4.40
2022-11-29T06:25:23.595Z,4.13
2022-11-29T06:28:06.462Z,4.67
2022-11-29T06:30:45.241Z,4.50
2022-11-29T06:33:21.652Z,4.10
2022-11-29T06:35:53.798Z,4.40
2022-11-29T06:38:23.437Z,4.37
2022-11-29T06:40:53.956Z,4.40
2022-11-29T06:43:23.019Z,4.20
2022-11-29T06:45:52.722Z,4.20
2022-11-29T06:48:25.310Z,4.80
2022-11-29T06:51:00.203Z,4.30
2022-11-29T06:53:36.823Z,4.27
2022-11-29T06:56:12.779Z,4.63
2022-11-29T06:58:48.950Z,4.40
2022-11-29T07:01:24.213Z,4.60
2022-11-29T07:04:05.890Z,4.40
2022-11-29T07:06:34.551Z,4.27
2022-11-29T07:09:08.762Z,4.00
2022-11-29T07:11:35.964Z,3.80
2022-11-29T07:14:03.061Z,3.80
2022-11-29T07:16:36.984Z,4.13
2022-11-29T07:19:15.024Z,3.70
2022-11-29T07:21:51.171Z,3.63
2022-11-29T07:24:31.986Z,3.73
2022-11-29T07:27:04.887Z,4.23
2022-11-29T07:29:41.516Z,3.90
2022-11-29T07:32:14.550Z,4.70
2022-11-29T07:34:50.231Z,4.27
2022-11-29T07:37:23.971Z,3.97
2022-11-29T07:39:59.453Z,4.70
2022-11-29T07:42:36.078Z,4.67
2022-11-29T07:45:15.651Z,4.70
2022-11-29T07:47:42.224Z,4.27
2022-11-29T07:50:11.377Z,4.33
2022-11-29T07:52:37.958Z,4.47
2022-11-29T07:55:05.627Z,4.80
2022-11-29T07:57:32.241Z,5.90
2022-11-29T07:59:58.812Z,4.50
2022-11-29T08:02:28.856Z,5.23
2022-11-29T08:04:55.526Z,4.57
2022-11-29T08:07:24.109Z,5.53
2022-11-29T08:09:50.867Z,5.30
2022-11-29T08:12:17.433Z,5.33
2022-11-29T08:14:44.453Z,6.03
2022-11-29T08:17:11.238Z,6.03
2022-11-29T08:19:37.959Z,6.60
2022-11-29T08:22:04.512Z,4.93
2022-11-29T08:24:32.463Z,5.97
2022-11-29T08:26:59.018Z,5.60
2022-11-29T08:29:25.595Z,6.30
2022-11-29T08:31:52.687Z,6.33
2022-11-29T08:34:19.425Z,7.57
2022-11-29T08:36:46.279Z,7.03
2022-11-29T08:39:12.852Z,6.10
2022-11-29T08:41:40.839Z,9.53
2022-11-29T08:44:07.833Z,14.33
2022-11-29T08:46:34.890Z,14.57
2022-11-29T08:49:01.519Z,13.63
2022-11-29T08:51:28.110Z,12.30
2022-11-29T08:53:54.680Z,11.60
2022-11-29T08:57:10.121Z,9.73
2022-11-29T08:59:09.372Z,8.80
2022-11-29T09:01:36.065Z,7.90
2022-11-29T09:04:02.697Z,8.17
2022-11-29T09:06:31.544Z,8.07
2022-11-29T09:08:59.973Z,9.80
2022-11-29T09:11:28.661Z,10.53
2022-11-29T09:13:57.678Z,9.43
2022-11-29T09:16:28.274Z,9.07
2022-11-29T09:18:55.262Z,7.70
2022-11-29T09:21:23.534Z,7.00
2022-11-29T09:23:50.561Z,9.63
2022-11-29T09:26:18.694Z,8.87
2022-11-29T09:28:45.367Z,9.77
2022-11-29T09:31:14.560Z,10.53
2022-11-29T09:33:42.658Z,9.13
2022-11-29T09:36:10.956Z,12.33
2022-11-29T09:38:38.326Z,11.60
2022-11-29T09:41:13.501Z,14.50
2022-11-29T09:43:50.241Z,12.17
2022-11-29T09:46:27.356Z,14.13
2022-11-29T09:49:27.208Z,26.53
2022-11-29T09:51:59.707Z,17.03
2022-11-29T09:54:35.168Z,12.17
2022-11-29T09:57:10.174Z,9.23
2022-11-29T09:59:40.470Z,14.73
2022-11-29T10:02:21.069Z,11.73
2022-11-29T10:04:55.020Z,10.60
2022-11-29T10:07:26.325Z,9.37
2022-11-29T10:10:00.462Z,8.03
2022-11-29T10:12:33.617Z,8.20
2022-11-29T10:15:06.510Z,11.27
2022-11-29T10:17:36.962Z,10.77
2022-11-29T10:20:12.671Z,8.60
2022-11-29T10:22:44.623Z,10.53
2022-11-29T10:25:19.061Z,9.03
2022-11-29T10:27:45.619Z,9.40
2022-11-29T10:30:14.431Z,10.37
2022-11-29T10:32:42.310Z,9.13
2022-11-29T10:35:15.595Z,10.87
2022-11-29T10:37:43.916Z,9.80
2022-11-29T10:40:21.995Z,10.20
2022-11-29T10:42:48.630Z,8.93
2022-11-29T10:45:19.568Z,10.97
2022-11-29T10:47:47.586Z,14.00
2022-11-29T10:50:20.213Z,12.67
2022-11-29T10:52:46.828Z,14.13
2022-11-29T10:55:15.730Z,13.20
2022-11-29T10:58:07.495Z,13.00
2022-11-29T11:00:43.844Z,9.90
2022-11-29T11:03:16.390Z,10.10
2022-11-29T11:05:56.418Z,9.83
2022-11-29T11:08:25.019Z,11.03
2022-11-29T11:10:55.388Z,10.67
2022-11-29T11:13:27.518Z,11.07
2022-11-29T11:15:58.354Z,10.43
2022-11-29T11:18:27.169Z,8.57
2022-11-29T11:20:57.483Z,10.47
2022-11-29T11:23:26.314Z,11.00
2022-11-29T11:25:58.179Z,12.00
2022-11-29T11:28:27.418Z,11.27
2022-11-29T11:30:57.342Z,10.77
2022-11-29T11:33:25.832Z,10.67
2022-11-29T11:36:06.578Z,11.67
2022-11-29T11:38:33.726Z,9.60
2022-11-29T11:41:06.938Z,9.00
2022-11-29T11:43:34.548Z,8.43
2022-11-29T11:46:01.488Z,10.03
2022-11-29T11:48:28.645Z,11.07
2022-11-29T11:50:57.023Z,11.07
2022-11-29T11:53:27.670Z,11.23
2022-11-29T11:55:58.538Z,9.60
2022-11-29T11:58:28.480Z,11.47
2022-11-29T12:01:05.331Z,11.77
2022-11-29T12:03:41.140Z,10.20
2022-11-29T12:06:27.094Z,10.57
2022-11-29T12:09:01.028Z,10.63
2022-11-29T12:11:42.792Z,12.43
2022-11-29T12:14:20.049Z,9.83
2022-11-29T12:16:48.878Z,10.97
2022-11-29T12:19:21.419Z,10.60
2022-11-29T12:21:53.074Z,9.53
2022-11-29T12:24:28.524Z,10.73
2022-11-29T12:27:00.385Z,8.53
2022-11-29T12:29:31.457Z,9.33
2022-11-29T12:32:09.149Z,9.93
2022-11-29T12:34:54.259Z,9.63
2022-11-29T12:37:29.101Z,8.60
2022-11-29T12:40:04.033Z,10.47
2022-11-29T12:42:41.015Z,11.03
2022-11-29T12:45:28.217Z,10.87
2022-11-29T12:48:02.889Z,11.03
2022-11-29T12:50:38.832Z,10.00
2022-11-29T12:53:23.984Z,9.77
2022-11-29T12:56:07.318Z,10.83
2022-11-29T12:58:46.093Z,10.17
2022-11-29T13:01:22.286Z,11.30
2022-11-29T13:03:57.606Z,12.17
2022-11-29T13:06:31.516Z,11.00
2022-11-29T13:09:36.917Z,9.87
2022-11-29T13:12:11.305Z,9.73
2022-11-29T13:14:46.251Z,10.27
2022-11-29T13:17:26.852Z,11.87
2022-11-29T13:19:56.318Z,9.67
2022-11-29T13:22:28.619Z,10.53
2022-11-29T13:24:59.121Z,10.23
2022-11-29T13:27:32.369Z,11.47
2022-11-29T13:30:00.382Z,10.73
2022-11-29T13:32:33.905Z,10.33
2022-11-29T13:35:05.761Z,11.43
2022-11-29T13:37:38.291Z,10.07
2022-11-29T13:40:20.089Z,11.87
2022-11-29T13:42:55.396Z,12.97
2022-11-29T13:45:26.561Z,12.53
2022-11-29T13:47:54.979Z,10.60
2022-11-29T13:50:39.623Z,10.57
2022-11-29T13:53:13.802Z,11.43
2022-11-29T13:55:45.930Z,11.57
2022-11-29T13:58:35.191Z,12.73
2022-11-29T14:01:05.476Z,11.40
2022-11-29T14:03:36.017Z,12.10
2022-11-29T14:06:12.264Z,12.50
2022-11-29T14:09:16.699Z,14.07
2022-11-29T14:11:34.750Z,16.80
2022-11-29T14:14:06.947Z,13.63
2022-11-29T14:16:37.815Z,10.20
2022-11-29T14:19:19.629Z,10.40
2022-11-29T14:22:28.905Z,10.70
2022-11-29T14:24:59.891Z,9.20
2022-11-29T14:27:46.507Z,11.30
2022-11-29T14:30:45.875Z,11.47
2022-11-29T14:33:24.075Z,11.63
2022-11-29T14:36:06.280Z,10.40
2022-11-29T14:38:41.807Z,10.57
2022-11-29T14:41:20.673Z,10.70
2022-11-29T14:43:47.345Z,10.50
2022-11-29T14:46:29.220Z,12.47
2022-11-29T14:49:02.180Z,10.90
2022-11-29T14:51:30.669Z,11.00
2022-11-29T14:54:05.940Z,11.40
2022-11-29T14:56:38.954Z,11.67
2022-11-29T14:59:39.080Z,11.27
2022-11-29T15:02:08.030Z,13.73
2022-11-29T15:04:38.276Z,11.00
2022-11-29T15:07:07.083Z,15.07
2022-11-29T15:09:34.257Z,13.30
2022-11-29T15:12:07.555Z,15.30
2022-11-29T15:14:44.787Z,14.10
2022-11-29T15:17:22.915Z,13.27
2022-11-29T15:20:07.482Z,13.47
2022-11-29T15:22:46.098Z,13.47
2022-11-29T15:25:18.663Z,11.97
2022-11-29T15:27:56.008Z,11.93
2022-11-29T15:30:32.382Z,8.83
2022-11-29T15:33:00.835Z,10.67
2022-11-29T15:35:29.497Z,11.70
2022-11-29T15:37:56.467Z,11.57
2022-11-29T15:40:24.617Z,12.87
2022-11-29T15:42:55.102Z,12.47
2022-11-29T15:45:33.141Z,13.80
2022-11-29T15:48:15.971Z,12.23
2022-11-29T15:50:49.285Z,12.57
2022-11-29T15:53:19.212Z,11.70
2022-11-29T15:55:47.587Z,10.33
2022-11-29T15:58:14.459Z,13.73
2022-11-29T16:00:43.105Z,12.07
2022-11-29T16:03:19.320Z,12.40
2022-11-29T16:05:51.015Z,12.83
2022-11-29T16:08:20.604Z,10.97
2022-11-29T16:10:49.197Z,12.30
2022-11-29T16:13:36.744Z,13.53
2022-11-29T16:16:11.615Z,12.43
2022-11-29T16:18:40.037Z,11.00
2022-11-29T16:21:22.211Z,13.37
2022-11-29T16:23:48.857Z,11.60
2022-11-29T16:26:18.711Z,11.53
2022-11-29T16:28:47.282Z,12.17
2022-11-29T16:31:18.086Z,14.57
2022-11-29T16:33:45.778Z,13.57
2022-11-29T16:36:19.646Z,11.67
2022-11-29T16:38:48.762Z,12.00
2022-11-29T16:41:24.768Z,12.97
2022-11-29T16:43:53.571Z,11.70
2022-11-29T16:46:29.485Z,12.53
2022-11-29T16:48:57.655Z,13.33
2022-11-29T16:51:32.224Z,11.20
2022-11-29T16:54:20.176Z,10.63
2022-11-29T16:56:46.788Z,11.97
2022-11-29T16:59:25.464Z,12.77
2022-11-29T17:01:55.381Z,12.63
2022-11-29T17:04:23.701Z,13.80
2022-11-29T17:06:52.581Z,13.00
2022-11-29T17:09:24.910Z,11.50
2022-11-29T17:11:51.983Z,11.67
2022-11-29T17:14:18.572Z,10.80
2022-11-29T17:16:45.254Z,12.60
2022-11-29T17:19:12.642Z,14.37
2022-11-29T17:21:39.638Z,13.80
2022-11-29T17:24:10.041Z,13.07
2022-11-29T17:26:36.611Z,15.40
2022-11-29T17:29:03.249Z,16.43
2022-11-29T17:31:29.912Z,15.77
2022-11-29T17:33:59.214Z,13.17
2022-11-29T17:36:26.037Z,12.33
2022-11-29T17:38:52.612Z,13.03
2022-11-29T17:41:22.409Z,12.07
2022-11-29T17:43:49.622Z,13.17
2022-11-29T17:46:18.235Z,13.40
2022-11-29T17:48:45.108Z,12.37
2022-11-29T17:51:36.058Z,13.20
2022-11-29T17:53:59.053Z,11.77
2022-11-29T17:56:27.020Z,12.13
2022-11-29T17:58:55.063Z,12.03
2022-11-29T18:01:23.022Z,10.87
2022-11-29T18:03:52.982Z,11.53
2022-11-29T18:06:22.132Z,10.77
2022-11-29T18:08:51.347Z,10.07
2022-11-29T18:11:19.872Z,10.40
2022-11-29T18:13:48.960Z,9.50
2022-11-29T18:16:17.334Z,9.47
2022-11-29T18:18:45.180Z,10.93
2022-11-29T18:21:13.068Z,11.53
2022-11-29T18:23:41.905Z,10.37
2022-11-29T18:26:12.712Z,9.30
2022-11-29T18:28:40.884Z,10.93
2022-11-29T18:31:10.318Z,11.77
2022-11-29T18:33:36.988Z,13.10
2022-11-29T18:36:04.284Z,13.73
2022-11-29T18:38:31.444Z,12.50
2022-11-29T18:40:58.256Z,12.93
2022-11-29T18:43:25.051Z,11.87
2022-11-29T18:45:51.651Z,12.47
2022-11-29T18:48:19.627Z,13.43
2022-11-29T18:50:46.157Z,12.67
2022-11-29T18:53:12.897Z,12.03
2022-11-29T18:55:39.452Z,12.33
2022-11-29T18:58:05.990Z,12.00
2022-11-29T19:00:32.557Z,11.40
2022-11-29T19:02:59.150Z,11.67
2022-11-29T19:05:27.110Z,11.23
2022-11-29T19:07:53.667Z,12.30
2022-11-29T19:10:20.227Z,12.37
2022-11-29T19:12:46.803Z,13.47
2022-11-29T19:15:13.365Z,12.73
2022-11-29T19:17:43.518Z,11.87
2022-11-29T19:20:11.596Z,12.37
2022-11-29T19:22:39.579Z,13.30
2022-11-29T19:25:07.361Z,16.30
2022-11-29T19:27:33.928Z,15.37
2022-11-29T19:30:00.524Z,13.37
2022-11-29T19:32:27.145Z,14.03
2022-11-29T19:34:53.693Z,13.40
2022-11-29T19:37:20.266Z,13.27
2022-11-29T19:39:48.419Z,11.73
2022-11-29T19:42:15.078Z,10.47
2022-11-29T19:45:14.782Z,11.47
2022-11-29T19:47:28.183Z,13.43
2022-11-29T19:49:59.247Z,11.27
2022-11-29T19:52:28.754Z,12.00
2022-11-29T19:54:56.752Z,15.13
2022-11-29T19:57:23.376Z,12.27
2022-11-29T19:59:49.914Z,13.83
2022-11-29T20:02:16.606Z,15.33
2022-11-29T20:04:44.060Z,16.13
2022-11-29T20:07:10.643Z,15.90
2022-11-29T20:09:37.276Z,15.33
2022-11-29T20:12:05.603Z,15.53
2022-11-29T20:14:32.140Z,16.07
2022-11-29T20:16:58.657Z,16.97
2022-11-29T20:19:25.227Z,17.00
2022-11-29T20:21:51.785Z,15.27
2022-11-29T20:24:18.668Z,11.33
2022-11-29T20:26:47.339Z,10.50
2022-11-29T20:29:15.976Z,12.90
2022-11-29T20:31:50.055Z,10.60
2022-11-29T20:34:18.396Z,10.43
2022-11-29T20:36:57.198Z,11.00
2022-11-29T20:39:31.846Z,10.67
2022-11-29T20:42:17.802Z,10.47
2022-11-29T20:44:51.853Z,11.23
2022-11-29T20:47:20.539Z,14.47
2022-11-29T20:49:48.075Z,12.40
2022-11-29T20:52:25.400Z,13.17
2022-11-29T20:54:51.967Z,11.07
2022-11-29T20:57:18.506Z,9.50
2022-11-29T20:59:46.608Z,8.03
2022-11-29T21:02:13.371Z,8.57
2022-11-29T21:04:39.880Z,8.67
2022-11-29T21:07:06.418Z,7.37
2022-11-29T21:09:33.030Z,6.67
2022-11-29T21:12:00.207Z,8.17
2022-11-29T21:14:27.232Z,8.37
2022-11-29T21:16:55.964Z,8.27
2022-11-29T21:19:25.179Z,7.53
2022-11-29T21:22:04.631Z,7.53
2022-11-29T21:24:43.858Z,7.70
2022-11-29T21:27:14.086Z,8.93
2022-11-29T21:29:41.136Z,8.83
2022-11-29T21:32:19.667Z,6.83
2022-11-29T21:34:46.441Z,5.93
2022-11-29T21:37:15.017Z,7.07
2022-11-29T21:39:41.902Z,6.40
2022-11-29T21:42:08.456Z,7.47
2022-11-29T21:44:35.362Z,6.33
2022-11-29T21:47:01.908Z,8.77
2022-11-29T21:49:29.962Z,5.87
2022-11-29T21:51:56.508Z,8.03
2022-11-29T21:54:23.171Z,6.80
2022-11-29T21:56:49.730Z,5.47
2022-11-29T21:59:16.297Z,7.77
2022-11-29T22:01:42.994Z,6.43
2022-11-29T22:04:09.633Z,6.57
2022-11-29T22:06:37.560Z,6.10
2022-11-29T22:09:04.872Z,6.33
2022-11-29T22:11:31.433Z,7.83
2022-11-29T22:13:58.867Z,5.83
2022-11-29T22:16:25.589Z,6.50
2022-11-29T22:18:52.240Z,6.33
2022-11-29T22:21:18.789Z,5.83
2022-11-29T22:23:46.881Z,6.23
2022-11-29T22:26:13.557Z,8.57
2022-11-29T22:28:40.130Z,10.07
2022-11-29T22:31:08.899Z,7.87
2022-11-29T22:33:35.897Z,7.20
2022-11-29T22:36:04.275Z,8.03
2022-11-29T22:38:30.892Z,8.57
2022-11-29T22:41:01.213Z,9.83
2022-11-29T22:43:28.464Z,16.70
2022-11-29T22:45:55.027Z,19.43
2022-11-29T22:48:21.561Z,13.07
2022-11-29T22:50:48.127Z,12.07
2022-11-29T22:53:14.714Z,10.03
2022-11-29T22:55:41.293Z,11.57
2022-11-29T22:58:09.219Z,14.23
2022-11-29T23:00:35.813Z,11.53
2022-11-29T23:03:02.390Z,11.23
2022-11-29T23:05:32.295Z,10.37
2022-11-29T23:07:59.260Z,12.43
2022-11-29T23:10:25.858Z,14.57
2022-11-29T23:12:52.896Z,9.57
2022-11-29T23:15:20.839Z,8.83
2022-11-29T23:17:47.406Z,9.60
2022-11-29T23:20:14.146Z,9.27
2022-11-29T23:22:40.692Z,10.47
2022-11-29T23:25:07.887Z,11.27
2022-11-29T23:27:34.415Z,10.23
2022-11-29T23:30:00.958Z,9.90
2022-11-29T23:32:28.904Z,10.07
2022-11-29T23:34:55.473Z,9.87
2022-11-29T23:37:22.017Z,8.60
2022-11-29T23:39:48.591Z,9.10
2022-11-29T23:42:15.166Z,8.30
2022-11-29T23:44:41.715Z,8.63
2022-11-29T23:47:08.276Z,8.30
2022-11-29T23:49:36.183Z,8.73
2022-11-29T23:52:02.767Z,9.33
2022-11-29T23:54:29.320Z,8.40
2022-11-29T23:56:55.870Z,9.67
2022-11-29T23:59:22.415Z,8.33
